Time;durP1;ratioP1;P1;durP2;ratioP2;P2;SDS_P1;SDS_P2;PMS_P1;PMS_P2;Temp;Humidity;BMP_temperature;BMP_pressure;BME280_temperature;BME280_humidity;BME280_pressure;Samples;Min_cycle;Max_cycle;Signal;HPM_P1;HPM_P2
2022/09/11 04:01:18;;;;;;;6.80;5.77;;;16.60;99.90;;;;;;5575084;23;20495;-61
2022/09/11 04:03:44;;;;;;;6.20;5.80;;;16.60;99.90;;;;;;4956849;28;20451;-62
2022/09/11 04:06:11;;;;;;;6.30;5.80;;;16.50;99.90;;;;;;4956780;28;20515;-62
2022/09/11 04:08:40;;;;;;;6.77;6.23;;;16.60;99.90;;;;;;4956472;28;20876;-62
2022/09/11 04:11:07;;;;;;;6.50;6.03;;;16.70;99.90;;;;;;4956171;28;20479;-62
2022/09/11 04:13:35;;;;;;;9.40;7.10;;;16.70;99.90;;;;;;4956167;28;20523;-62
2022/09/11 04:16:04;;;;;;;7.47;6.70;;;16.70;99.90;;;;;;4955887;28;20943;-63
2022/09/11 04:18:35;;;;;;;7.00;5.87;;;16.70;99.90;;;;;;4956248;28;20440;-63
2022/09/11 04:21:04;;;;;;;7.43;6.73;;;16.70;99.90;;;;;;4955988;28;20475;-62
2022/09/11 04:23:30;;;;;;;6.87;6.20;;;16.70;99.90;;;;;;4955915;28;20459;-62
2022/09/11 04:25:57;;;;;;;7.17;6.30;;;16.70;99.90;;;;;;4955908;28;20456;-62
2022/09/11 04:28:24;;;;;;;6.50;6.00;;;16.70;99.90;;;;;;4955885;28;20459;-62
2022/09/11 04:30:50;;;;;;;6.53;5.93;;;16.70;99.90;;;;;;4955886;28;20525;-62
2022/09/11 04:33:17;;;;;;;7.23;6.13;;;16.80;99.90;;;;;;4955825;28;20455;-62
2022/09/11 04:35:45;;;;;;;7.20;6.20;;;16.80;99.90;;;;;;4955511;28;20929;-62
2022/09/11 04:38:12;;;;;;;8.03;6.43;;;16.80;99.90;;;;;;4955788;28;20463;-62
2022/09/11 04:40:39;;;;;;;7.50;6.80;;;16.80;99.90;;;;;;4956470;28;20511;-63
2022/09/11 04:43:06;;;;;;;7.90;6.63;;;16.90;99.90;;;;;;4955707;28;20463;-62
2022/09/11 04:45:34;;;;;;;7.70;7.03;;;16.90;99.90;;;;;;4955679;28;20455;-62
2022/09/11 04:48:00;;;;;;;6.93;6.33;;;16.90;99.90;;;;;;4955561;28;20466;-62
2022/09/11 04:50:29;;;;;;;6.37;5.87;;;16.90;99.90;;;;;;4955585;28;20524;-61
2022/09/11 04:52:58;;;;;;;6.87;6.37;;;16.80;99.90;;;;;;4955638;28;20483;-62
2022/09/11 04:55:25;;;;;;;6.90;6.40;;;16.90;99.90;;;;;;4955742;28;20492;-62
2022/09/11 04:57:52;;;;;;;9.50;7.63;;;16.90;99.90;;;;;;4955659;28;20455;-62
2022/09/11 05:00:19;;;;;;;7.80;7.10;;;16.90;99.90;;;;;;4955206;28;20487;-61
2022/09/11 05:02:47;;;;;;;6.97;6.37;;;16.80;99.90;;;;;;4955608;28;20440;-62
2022/09/11 05:05:14;;;;;;;8.20;6.73;;;16.90;99.90;;;;;;4955491;28;20463;-62
2022/09/11 05:07:41;;;;;;;7.23;6.73;;;16.90;99.90;;;;;;4955694;28;20460;-63
2022/09/11 05:10:10;;;;;;;7.73;6.77;;;16.80;99.90;;;;;;4959641;28;20455;-62
2022/09/11 05:12:36;;;;;;;9.07;7.00;;;16.90;99.90;;;;;;4959178;28;20502;-62
2022/09/11 05:15:04;;;;;;;7.50;7.00;;;16.90;99.90;;;;;;4959201;28;20459;-62
2022/09/11 05:17:30;;;;;;;6.93;6.23;;;16.80;99.90;;;;;;4959071;28;20550;-62
2022/09/11 05:19:57;;;;;;;7.70;7.07;;;16.80;99.90;;;;;;4959224;28;20462;-62
2022/09/11 05:22:24;;;;;;;7.87;7.13;;;16.90;99.90;;;;;;4958954;28;20475;-62
2022/09/11 05:24:51;;;;;;;8.07;7.27;;;16.90;99.90;;;;;;4958728;28;20935;-62
2022/09/11 05:27:19;;;;;;;7.67;7.07;;;16.80;99.90;;;;;;4959040;28;20462;-62
2022/09/11 05:29:45;;;;;;;7.67;6.73;;;16.80;99.90;;;;;;4959173;28;20463;-62
2022/09/11 05:32:12;;;;;;;7.50;7.00;;;16.90;99.90;;;;;;4958566;28;20896;-62
2022/09/11 05:34:39;;;;;;;7.50;7.00;;;16.80;99.90;;;;;;4958911;28;20459;-63
2022/09/11 05:37:06;;;;;;;6.90;6.40;;;16.80;99.90;;;;;;4958795;28;20459;-63
2022/09/11 05:39:33;;;;;;;6.67;6.07;;;16.90;99.90;;;;;;4958856;28;20470;-63
2022/09/11 05:41:59;;;;;;;7.50;6.80;;;16.90;99.90;;;;;;4958654;28;20475;-63
2022/09/11 05:44:29;;;;;;;7.27;6.63;;;17.00;99.90;;;;;;4958746;28;20459;-63
2022/09/11 05:46:57;;;;;;;7.90;7.23;;;17.00;99.90;;;;;;4958709;28;20531;-63
2022/09/11 05:49:24;;;;;;;7.77;6.97;;;17.00;99.90;;;;;;4958907;28;20554;-63
2022/09/11 05:51:51;;;;;;;8.40;7.57;;;17.00;99.90;;;;;;4958195;28;21078;-62
2022/09/11 05:54:17;;;;;;;7.00;6.50;;;17.00;99.90;;;;;;4958218;28;20860;-62
2022/09/11 05:56:44;;;;;;;7.50;6.80;;;17.10;99.90;;;;;;4958531;28;20459;-62
2022/09/11 05:59:14;;;;;;;9.13;8.23;;;17.10;99.90;;;;;;4958567;28;20510;-62
2022/09/11 06:01:42;;;;;;;8.47;7.87;;;17.10;99.90;;;;;;4958125;28;20486;-62
2022/09/11 06:04:10;;;;;;;8.00;7.20;;;17.10;99.90;;;;;;4958442;28;20876;-62
2022/09/11 06:06:36;;;;;;;8.27;7.67;;;17.10;99.90;;;;;;4958618;28;20499;-63
2022/09/11 06:09:03;;;;;;;7.23;6.40;;;17.10;99.90;;;;;;4958275;28;20459;-63
2022/09/11 06:11:30;;;;;;;7.90;7.30;;;17.10;99.90;;;;;;4958312;28;20479;-63
2022/09/11 06:13:57;;;;;;;8.40;7.50;;;17.10;99.90;;;;;;4959151;28;20554;-63
2022/09/11 06:16:24;;;;;;;8.00;7.40;;;17.10;99.90;;;;;;4959274;28;20455;-63
2022/09/11 06:18:53;;;;;;;7.60;7.10;;;17.20;99.90;;;;;;4958984;28;20891;-63
2022/09/11 06:21:22;;;;;;;7.30;6.70;;;17.10;99.90;;;;;;4957815;28;20535;-63
2022/09/11 06:23:51;;;;;;;7.50;7.00;;;17.20;99.90;;;;;;4958544;28;20462;-63
2022/09/11 06:26:20;;;;;;;7.53;6.73;;;17.20;99.90;;;;;;4958137;28;20510;-63
2022/09/11 06:28:47;;;;;;;8.97;8.27;;;17.20;99.90;;;;;;4957638;28;20946;-63
2022/09/11 06:31:16;;;;;;;8.87;8.03;;;17.30;99.90;;;;;;4957973;28;20471;-65
2022/09/11 06:33:43;;;;;;;7.13;6.50;;;17.30;99.90;;;;;;4957651;28;20969;-63
2022/09/11 06:36:12;;;;;;;6.63;6.23;;;17.30;99.90;;;;;;4958038;28;20518;-64
2022/09/11 06:38:39;;;;;;;7.60;6.90;;;17.40;99.90;;;;;;4958290;28;20510;-63
2022/09/11 06:41:10;;;;;;;8.73;8.07;;;17.50;99.90;;;;;;4958450;28;20484;-64
2022/09/11 06:43:36;;;;;;;10.77;7.33;;;17.50;99.90;;;;;;4957699;28;20443;-63
2022/09/11 06:46:04;;;;;;;11.80;7.07;;;17.60;99.90;;;;;;4958002;28;20459;-63
2022/09/11 06:48:30;;;;;;;8.20;7.50;;;17.60;99.90;;;;;;4957844;28;20542;-63
2022/09/11 06:51:01;;;;;;;10.27;6.73;;;17.70;99.90;;;;;;4957677;28;20483;-62
2022/09/11 06:53:29;;;;;;;6.97;6.33;;;17.70;99.90;;;;;;4957752;28;20502;-63
2022/09/11 06:55:59;;;;;;;7.97;7.30;;;17.70;99.90;;;;;;4957475;28;20872;-64
2022/09/11 06:58:26;;;;;;;10.87;9.33;;;17.70;99.90;;;;;;4957507;28;20939;-63
2022/09/11 07:00:52;;;;;;;7.43;6.90;;;17.80;99.90;;;;;;4957369;28;20554;-62
2022/09/11 07:03:19;;;;;;;7.87;7.13;;;17.90;99.90;;;;;;4957815;28;20542;-63
2022/09/11 07:05:46;;;;;;;7.30;6.57;;;17.90;99.90;;;;;;4957283;28;20511;-62
2022/09/11 07:08:13;;;;;;;8.40;7.60;;;17.90;99.90;;;;;;4957085;28;20467;-62
2022/09/11 07:10:41;;;;;;;7.70;7.20;;;17.90;99.90;;;;;;4956989;28;20527;-62
2022/09/11 07:13:08;;;;;;;7.57;6.97;;;17.90;99.90;;;;;;4957029;28;20483;-62
2022/09/11 07:15:35;;;;;;;8.10;7.50;;;17.90;99.90;;;;;;4956835;28;20927;-60
2022/09/11 07:18:01;;;;;;;7.70;7.00;;;17.90;99.90;;;;;;4956771;28;20459;-60
2022/09/11 07:20:28;;;;;;;7.50;6.80;;;17.90;99.90;;;;;;4956603;28;21016;-60
2022/09/11 07:22:55;;;;;;;8.30;7.50;;;17.90;99.90;;;;;;4957071;28;20469;-60
2022/09/11 07:25:21;;;;;;;6.80;6.30;;;17.90;99.90;;;;;;4956856;28;20459;-62
2022/09/11 07:27:50;;;;;;;8.27;6.90;;;18.00;99.90;;;;;;4956711;28;20455;-61
2022/09/11 07:30:18;;;;;;;8.30;7.70;;;18.10;99.90;;;;;;4956929;28;20558;-61
2022/09/11 07:32:45;;;;;;;7.53;6.93;;;18.20;99.90;;;;;;4956604;28;20479;-60
2022/09/11 07:35:20;;;;;;;7.43;6.93;;;18.30;99.90;;;;;;4956809;28;20491;-60
2022/09/11 07:37:47;;;;;;;7.50;6.80;;;18.40;99.90;;;;;;4956654;28;20461;-60
2022/09/11 07:40:13;;;;;;;7.03;6.40;;;18.60;99.90;;;;;;4956452;28;20511;-61
2022/09/11 07:42:40;;;;;;;7.30;6.43;;;18.70;99.90;;;;;;4956580;28;20452;-60
2022/09/11 07:45:09;;;;;;;6.97;6.40;;;18.80;99.90;;;;;;4956514;28;20491;-60
2022/09/11 07:47:37;;;;;;;7.80;6.83;;;18.90;99.90;;;;;;4956517;28;20455;-60
2022/09/11 07:50:05;;;;;;;9.17;7.40;;;19.00;99.90;;;;;;4956214;28;20950;-60
2022/09/11 07:52:31;;;;;;;7.23;6.47;;;19.10;99.90;;;;;;4956305;28;20522;-60
2022/09/11 07:55:00;;;;;;;7.80;7.00;;;19.10;99.90;;;;;;4956282;28;20455;-60
2022/09/11 07:57:26;;;;;;;7.63;7.13;;;19.20;99.90;;;;;;4956362;28;20466;-60
2022/09/11 07:59:53;;;;;;;7.13;6.53;;;19.30;99.90;;;;;;4956275;28;20456;-60
2022/09/11 08:02:22;;;;;;;6.93;6.37;;;19.60;99.90;;;;;;4955889;28;21045;-60
2022/09/11 08:04:50;;;;;;;7.07;6.53;;;19.90;99.90;;;;;;4956149;28;20455;-60
2022/09/11 08:07:17;;;;;;;6.70;6.07;;;20.30;99.90;;;;;;4956092;28;20506;-60
2022/09/11 08:09:44;;;;;;;6.90;6.17;;;20.80;99.90;;;;;;4956034;28;20459;-60
2022/09/11 08:12:11;;;;;;;6.97;6.27;;;21.20;99.90;;;;;;4955575;28;20998;-60
2022/09/11 08:14:37;;;;;;;6.50;6.00;;;21.40;99.90;;;;;;4956020;28;20503;-60
2022/09/11 08:17:04;;;;;;;8.23;6.23;;;21.50;99.90;;;;;;4956650;28;20953;-60
2022/09/11 08:19:32;;;;;;;6.37;5.87;;;21.70;99.90;;;;;;4955784;28;20993;-60
2022/09/11 08:21:59;;;;;;;6.20;4.90;;;21.90;99.90;;;;;;4956152;28;20570;-61
2022/09/11 08:24:26;;;;;;;5.90;5.30;;;22.60;99.90;;;;;;4955954;28;20462;-61
2022/09/11 08:26:53;;;;;;;5.30;4.90;;;23.50;99.90;;;;;;4955793;28;20466;-62
2022/09/11 08:29:19;;;;;;;5.67;5.23;;;24.50;99.90;;;;;;4955708;28;20466;-62
2022/09/11 08:31:46;;;;;;;5.20;4.80;;;25.00;99.90;;;;;;4955473;28;20475;-62
2022/09/11 08:34:12;;;;;;;5.70;5.20;;;25.10;99.90;;;;;;4955458;28;20994;-62
2022/09/11 08:36:40;;;;;;;6.13;5.33;;;24.90;99.90;;;;;;4955674;28;20481;-62
2022/09/11 08:39:07;;;;;;;9.90;4.80;;;25.20;99.90;;;;;;4955722;28;20464;-62
2022/09/11 08:41:41;;;;;;;5.37;4.90;;;25.40;99.90;;;;;;4955919;28;20482;-62
2022/09/11 08:44:16;;;;;;;5.30;4.87;;;25.30;99.90;;;;;;4955230;28;20491;-62
2022/09/11 08:46:46;;;;;;;7.87;7.17;;;25.10;99.90;;;;;;4955637;28;20443;-60
2022/09/11 08:49:21;;;;;;;5.87;5.47;;;24.60;99.90;;;;;;4955873;28;20463;-60
2022/09/11 08:51:50;;;;;;;6.13;5.10;;;24.50;99.90;;;;;;4955918;28;20837;-61
2022/09/11 08:54:26;;;;;;;6.13;5.27;;;24.40;99.90;;;;;;4957154;28;20534;-60
2022/09/11 08:56:57;;;;;;;6.23;5.73;;;24.20;99.90;;;;;;4957378;28;20474;-60
2022/09/11 08:59:34;;;;;;;6.37;5.87;;;23.90;99.90;;;;;;4956374;28;20979;-60
2022/09/11 09:02:17;;;;;;;5.90;5.33;;;23.50;99.90;;;;;;4955961;28;20538;-60
2022/09/11 09:05:00;;;;;;;5.57;5.27;;;23.10;99.90;;;;;;4955225;29;20443;-60
2022/09/11 09:07:37;;;;;;;5.40;5.00;;;23.20;99.90;;;;;;4955671;28;20451;-61
2022/09/11 09:10:14;;;;;;;5.50;5.00;;;23.90;99.90;;;;;;4955375;28;20439;-61
2022/09/11 09:12:51;;;;;;;5.07;4.67;;;25.10;99.90;;;;;;4954938;28;20525;-61
2022/09/11 09:15:32;;;;;;;6.97;6.30;;;26.30;99.90;;;;;;4955305;28;20444;-61
2022/09/11 09:18:03;;;;;;;5.40;4.90;;;26.30;99.90;;;;;;4955227;28;20478;-61
2022/09/11 09:20:34;;;;;;;5.60;5.20;;;26.10;99.90;;;;;;4955270;28;20444;-61
2022/09/11 09:23:06;;;;;;;5.80;5.40;;;25.70;99.90;;;;;;4955384;28;20440;-61
2022/09/11 09:25:37;;;;;;;6.30;5.90;;;25.40;99.90;;;;;;4955312;28;20443;-61
2022/09/11 09:28:14;;;;;;;4.80;4.40;;;25.40;99.90;;;;;;4955385;28;20523;-61
2022/09/11 09:30:46;;;;;;;5.47;5.00;;;26.10;99.90;;;;;;4955056;28;20491;-61
2022/09/11 09:33:25;;;;;;;5.17;4.77;;;27.10;99.90;;;;;;4955309;28;20464;-61
2022/09/11 09:35:53;;;;;;;5.27;4.60;;;28.00;99.90;;;;;;4955410;28;20463;-61
2022/09/11 09:38:23;;;;;;;4.33;4.03;;;28.50;98.20;;;;;;4955196;28;20466;-61
2022/09/11 09:41:03;;;;;;;4.60;4.20;;;28.20;96.40;;;;;;4955269;28;20467;-61
2022/09/11 09:43:44;;;;;;;4.40;4.10;;;28.00;96.40;;;;;;4955140;28;20491;-62
2022/09/11 09:46:20;;;;;;;5.10;4.77;;;27.30;96.00;;;;;;4955089;28;20849;-62
2022/09/11 09:48:47;;;;;;;5.00;4.60;;;26.50;97.80;;;;;;4955347;28;20440;-62
2022/09/11 09:51:14;;;;;;;5.07;4.73;;;26.80;96.60;;;;;;4955167;28;20850;-62
2022/09/11 09:53:46;;;;;;;4.23;4.00;;;27.60;94.10;;;;;;4954911;28;20479;-62
2022/09/11 09:56:16;;;;;;;4.10;3.90;;;28.40;93.50;;;;;;4957340;28;20440;-62
2022/09/11 09:58:49;;;;;;;5.10;4.80;;;29.40;91.90;;;;;;4958391;28;20459;-62
2022/09/11 10:01:44;;;;;;;4.10;3.90;;;29.70;90.70;;;;;;4957917;28;21012;-62
2022/09/11 10:04:15;;;;;;;5.27;4.93;;;29.70;87.50;;;;;;4958400;28;20459;-62
2022/09/11 10:06:43;;;;;;;4.57;4.17;;;29.10;89.80;;;;;;4958260;28;20776;-62
2022/09/11 10:09:25;;;;;;;4.53;4.23;;;28.70;90.70;;;;;;4958151;28;20448;-62
2022/09/11 10:11:54;;;;;;;5.97;5.37;;;28.10;91.20;;;;;;4958410;28;20478;-62
2022/09/11 10:14:23;;;;;;;4.50;4.20;;;27.30;91.60;;;;;;4958518;28;20594;-62
2022/09/11 10:16:51;;;;;;;5.20;4.83;;;26.70;93.30;;;;;;4958329;28;20455;-63
2022/09/11 10:19:39;;;;;;;6.70;6.23;;;26.10;94.20;;;;;;4958301;28;20550;-63
2022/09/11 10:22:26;;;;;;;6.13;5.73;;;25.30;95.70;;;;;;4958053;28;20480;-63
2022/09/11 10:25:01;;;;;;;6.30;5.80;;;24.60;98.20;;;;;;4958837;28;20510;-62
2022/09/11 10:27:31;;;;;;;6.70;6.20;;;24.20;99.90;;;;;;4958375;28;20447;-63
2022/09/11 10:29:59;;;;;;;6.40;6.10;;;23.80;99.90;;;;;;4958021;28;20462;-62
2022/09/11 10:32:27;;;;;;;5.60;5.30;;;23.50;99.90;;;;;;4957803;28;20476;-63
2022/09/11 10:34:55;;;;;;;5.20;4.90;;;23.50;99.90;;;;;;4958012;28;20475;-62
2022/09/11 10:37:26;;;;;;;6.00;5.50;;;24.10;99.90;;;;;;4957940;28;20464;-63
2022/09/11 10:39:54;;;;;;;5.80;5.40;;;25.00;99.90;;;;;;4957808;28;20444;-62
2022/09/11 10:42:26;;;;;;;5.13;4.73;;;25.90;99.90;;;;;;4957174;28;20978;-62
2022/09/11 10:44:56;;;;;;;6.03;5.53;;;26.90;97.80;;;;;;4957676;28;20448;-62
2022/09/11 10:47:25;;;;;;;5.00;4.67;;;28.00;94.00;;;;;;4957927;28;20440;-61
2022/09/11 10:50:18;;;;;;;5.40;5.00;;;28.80;93.70;;;;;;4957781;28;20463;-61
2022/09/11 10:52:50;;;;;;;4.53;4.23;;;29.10;92.10;;;;;;4957577;28;20531;-61
2022/09/11 10:55:18;;;;;;;6.10;5.73;;;29.10;90.80;;;;;;4957267;28;20447;-61
2022/09/11 10:57:51;;;;;;;6.20;5.10;;;28.70;90.60;;;;;;4957331;28;20459;-61
2022/09/11 11:00:20;;;;;;;5.77;5.27;;;28.10;92.30;;;;;;4957085;28;20444;-61
2022/09/11 11:02:50;;;;;;;4.80;4.50;;;27.60;91.50;;;;;;4957289;28;20436;-61
2022/09/11 11:05:23;;;;;;;5.53;5.23;;;27.00;92.70;;;;;;4957423;28;20475;-61
2022/09/11 11:08:14;;;;;;;6.27;5.77;;;26.70;93.70;;;;;;4957144;28;20443;-62
2022/09/11 11:10:55;;;;;;;6.30;5.70;;;26.10;94.00;;;;;;4956998;28;20475;-62
2022/09/11 11:13:45;;;;;;;6.20;5.80;;;25.60;94.80;;;;;;4957669;28;20577;-62
2022/09/11 11:16:19;;;;;;;5.53;5.13;;;25.40;96.80;;;;;;4956950;28;20436;-62
2022/09/11 11:19:05;;;;;;;7.00;6.40;;;25.10;96.90;;;;;;4956809;28;20523;-62
2022/09/11 11:21:47;;;;;;;6.70;6.10;;;24.90;97.30;;;;;;4956909;28;20538;-62
2022/09/11 11:24:36;;;;;;;6.10;5.70;;;24.70;98.00;;;;;;4957119;28;20823;-62
2022/09/11 11:27:35;;;;;;;6.40;5.97;;;24.50;98.40;;;;;;4957370;28;20451;-60
2022/09/11 11:30:16;;;;;;;6.20;5.80;;;24.40;99.80;;;;;;4956979;28;20440;-62
2022/09/11 11:33:02;;;;;;;6.80;6.13;;;24.70;99.90;;;;;;4956825;28;20882;-62
2022/09/11 11:35:33;;;;;;;6.00;5.57;;;25.00;99.40;;;;;;4956833;28;20982;-62
2022/09/11 11:38:08;;;;;;;7.20;6.60;;;25.20;98.60;;;;;;4957392;28;20444;-62
2022/09/11 11:40:40;;;;;;;6.10;5.60;;;25.20;96.50;;;;;;4956845;28;20479;-62
2022/09/11 11:43:11;;;;;;;6.10;5.60;;;25.20;97.40;;;;;;4956815;28;20494;-62
2022/09/11 11:45:43;;;;;;;5.03;4.60;;;25.30;97.90;;;;;;4956495;28;20806;-62
2022/09/11 11:48:14;;;;;;;5.20;4.90;;;25.50;97.70;;;;;;4956504;28;20450;-62
2022/09/11 11:50:43;;;;;;;5.90;5.40;;;25.50;96.30;;;;;;4957065;28;20479;-61
2022/09/11 11:53:18;;;;;;;5.83;5.40;;;25.70;97.20;;;;;;4956449;28;20471;-62
2022/09/11 11:55:53;;;;;;;6.83;6.30;;;26.00;95.40;;;;;;4956857;28;20444;-61
2022/09/11 11:58:25;;;;;;;5.70;5.40;;;26.20;93.40;;;;;;4956731;28;20443;-62
2022/09/11 12:00:58;;;;;;;5.40;5.10;;;25.90;93.80;;;;;;4956676;28;20902;-62
2022/09/11 12:03:30;;;;;;;6.30;5.70;;;25.80;93.80;;;;;;4956748;28;20910;-63
2022/09/11 12:05:57;;;;;;;6.20;5.80;;;25.30;94.50;;;;;;4956331;28;20457;-62
2022/09/11 12:08:24;;;;;;;6.57;5.97;;;25.00;95.80;;;;;;4956105;28;20467;-62
2022/09/11 12:10:57;;;;;;;6.40;6.00;;;24.70;95.70;;;;;;4956060;28;20483;-62
2022/09/11 12:13:29;;;;;;;6.40;5.80;;;24.50;95.60;;;;;;4955727;28;20464;-62
2022/09/11 12:16:11;;;;;;;5.83;5.43;;;24.50;96.50;;;;;;4956468;28;20447;-60
2022/09/11 12:18:40;;;;;;;5.90;5.40;;;24.50;97.90;;;;;;4955738;28;20778;-61
2022/09/11 12:21:37;;;;;;;5.83;5.43;;;24.60;98.30;;;;;;4956677;28;20475;-61
2022/09/11 12:24:14;;;;;;;5.80;5.40;;;24.80;97.40;;;;;;4956577;28;20459;-64
2022/09/11 12:26:40;;;;;;;5.80;5.30;;;25.00;98.10;;;;;;4956439;28;20444;-64
2022/09/11 12:29:50;;;;;;;5.80;5.40;;;25.10;96.70;;;;;;4956206;28;20460;-64
2022/09/11 12:32:44;;;;;;;6.53;6.00;;;25.10;96.90;;;;;;4956420;28;20816;-63
2022/09/11 12:35:22;;;;;;;5.87;5.47;;;24.80;96.20;;;;;;4956096;28;20483;-64
2022/09/11 12:37:56;;;;;;;5.30;5.00;;;24.50;96.90;;;;;;4955891;28;20443;-63
2022/09/11 12:40:31;;;;;;;5.83;5.40;;;24.20;97.60;;;;;;4955946;28;20471;-63
2022/09/11 12:43:16;;;;;;;5.90;5.43;;;23.90;97.90;;;;;;4956537;28;20449;-64
2022/09/11 12:45:46;;;;;;;5.57;5.17;;;23.70;99.10;;;;;;4955708;28;20468;-64
2022/09/11 12:48:16;;;;;;;7.13;6.63;;;23.50;98.50;;;;;;4955913;28;20482;-64
2022/09/11 12:50:50;;;;;;;6.00;5.50;;;23.20;99.30;;;;;;4955851;28;20522;-64
2022/09/11 12:53:23;;;;;;;6.37;5.87;;;23.00;99.90;;;;;;4955226;28;20454;-65
2022/09/11 12:55:59;;;;;;;6.77;6.23;;;22.90;99.90;;;;;;4956011;28;20521;-64
2022/09/11 12:58:30;;;;;;;6.37;5.97;;;22.80;99.90;;;;;;4955538;28;20443;-63
2022/09/11 13:01:06;;;;;;;7.10;6.40;;;22.60;99.90;;;;;;4955270;28;21167;-63
2022/09/11 13:03:35;;;;;;;6.57;6.07;;;22.50;99.90;;;;;;4955793;28;20447;-63
2022/09/11 13:06:05;;;;;;;5.93;5.53;;;22.40;99.90;;;;;;4955461;28;20491;-63
2022/09/11 13:08:37;;;;;;;7.40;6.80;;;22.20;99.90;;;;;;4955709;28;20443;-61
2022/09/11 13:11:41;;;;;;;6.50;6.00;;;22.00;99.90;;;;;;4955271;28;20479;-60
2022/09/11 13:14:37;;;;;;;7.13;6.43;;;21.90;99.90;;;;;;4955364;28;20479;-60
2022/09/11 13:17:14;;;;;;;6.53;6.13;;;21.90;99.90;;;;;;4955874;28;20459;-60
2022/09/11 13:19:42;;;;;;;6.80;6.30;;;22.00;99.90;;;;;;4958653;28;20436;-60
2022/09/11 13:22:24;;;;;;;6.80;6.30;;;22.00;99.90;;;;;;4958213;28;20503;-60
2022/09/11 13:24:51;;;;;;;7.83;7.17;;;22.10;99.90;;;;;;4956992;28;20843;-60
2022/09/11 13:27:25;;;;;;;7.37;6.77;;;22.10;99.90;;;;;;4956349;28;20547;-61
2022/09/11 13:29:54;;;;;;;7.30;6.80;;;22.10;99.90;;;;;;4957912;28;20443;-60
2022/09/11 13:32:21;;;;;;;6.77;6.23;;;22.20;99.90;;;;;;4959600;28;20571;-60
2022/09/11 13:34:55;;;;;;;7.13;6.50;;;22.30;99.90;;;;;;4959477;28;20479;-60
2022/09/11 13:37:34;;;;;;;6.83;6.30;;;22.50;99.90;;;;;;4958861;28;20495;-61
2022/09/11 13:40:03;;;;;;;6.60;5.90;;;22.70;99.90;;;;;;4958907;28;20443;-61
2022/09/11 13:42:30;;;;;;;6.60;6.10;;;23.00;99.90;;;;;;4958534;28;20482;-61
2022/09/11 13:44:59;;;;;;;5.90;5.60;;;23.30;99.90;;;;;;4958640;28;20455;-61
2022/09/11 13:47:28;;;;;;;6.30;5.90;;;23.30;99.90;;;;;;4958723;28;20459;-61
2022/09/11 13:50:00;;;;;;;6.00;5.60;;;23.40;99.90;;;;;;4958355;28;20459;-61
2022/09/11 13:52:30;;;;;;;5.57;5.17;;;23.80;99.90;;;;;;4959078;28;20487;-61
2022/09/11 13:54:59;;;;;;;5.83;5.30;;;24.10;99.90;;;;;;4958396;28;21049;-61
2022/09/11 13:57:30;;;;;;;5.97;5.47;;;24.50;99.90;;;;;;4958516;28;20509;-61
2022/09/11 13:59:57;;;;;;;5.07;4.67;;;24.80;99.70;;;;;;4958651;28;20530;-61
2022/09/11 14:02:46;;;;;;;4.73;4.43;;;25.00;97.40;;;;;;4958242;28;20494;-60
2022/09/11 14:05:19;;;;;;;4.60;4.40;;;25.10;96.80;;;;;;4958022;28;20446;-61
2022/09/11 14:08:02;;;;;;;4.23;4.03;;;25.10;97.00;;;;;;4958458;28;20677;-61
2022/09/11 14:10:32;;;;;;;5.13;4.77;;;25.10;96.30;;;;;;4958271;28;20440;-61
2022/09/11 14:13:05;;;;;;;4.37;4.17;;;24.90;96.00;;;;;;4958030;28;20515;-61
2022/09/11 14:15:38;;;;;;;5.37;5.07;;;24.90;97.90;;;;;;4958140;28;20475;-61
2022/09/11 14:18:11;;;;;;;4.63;4.40;;;24.90;97.00;;;;;;4958054;28;20447;-61
2022/09/11 14:20:44;;;;;;;4.93;4.63;;;24.90;96.50;;;;;;4957924;28;20583;-61
2022/09/11 14:23:17;;;;;;;4.87;4.63;;;24.80;96.80;;;;;;4957893;28;20447;-61
2022/09/11 14:26:13;;;;;;;5.00;4.70;;;24.80;98.10;;;;;;4958037;28;20440;-60
2022/09/11 14:29:01;;;;;;;5.30;4.80;;;24.90;97.50;;;;;;4957918;28;20458;-60
2022/09/11 14:31:32;;;;;;;4.83;4.53;;;25.00;96.80;;;;;;4957869;28;20471;-60
2022/09/11 14:34:15;;;;;;;5.37;5.00;;;24.90;96.40;;;;;;4957603;28;20471;-60
2022/09/11 14:36:46;;;;;;;5.40;5.10;;;24.80;95.90;;;;;;4957750;28;20970;-60
2022/09/11 14:39:18;;;;;;;4.80;4.50;;;24.70;96.70;;;;;;4957679;28;20451;-60
2022/09/11 14:41:45;;;;;;;5.47;5.17;;;24.80;97.60;;;;;;4956880;28;20530;-60
2022/09/11 14:44:14;;;;;;;5.10;4.80;;;24.80;96.90;;;;;;4958076;28;20511;-60
2022/09/11 14:46:41;;;;;;;5.97;5.67;;;24.90;97.30;;;;;;4957667;28;20455;-60
2022/09/11 14:49:08;;;;;;;4.63;4.43;;;25.00;97.20;;;;;;4958245;28;20463;-61
2022/09/11 14:51:35;;;;;;;5.90;5.37;;;25.10;96.70;;;;;;4957423;28;20899;-63
2022/09/11 14:54:04;;;;;;;5.67;5.27;;;25.20;97.30;;;;;;4957374;28;20530;-63
2022/09/11 14:56:31;;;;;;;6.40;5.83;;;25.20;98.20;;;;;;4957359;28;20852;-63
2022/09/11 14:58:58;;;;;;;6.50;4.90;;;25.30;97.20;;;;;;4957019;28;20939;-63
2022/09/11 15:01:25;;;;;;;5.77;5.37;;;25.20;96.10;;;;;;4956824;28;20487;-63
2022/09/11 15:03:53;;;;;;;5.10;4.70;;;25.00;97.30;;;;;;4957034;28;20546;-63
2022/09/11 15:06:20;;;;;;;5.70;5.30;;;25.00;96.90;;;;;;4957382;28;20816;-63
2022/09/11 15:08:47;;;;;;;5.53;5.23;;;24.90;98.00;;;;;;4956916;28;20917;-63
2022/09/11 15:11:15;;;;;;;5.60;5.20;;;24.80;97.00;;;;;;4956982;28;20530;-63
2022/09/11 15:13:43;;;;;;;5.73;5.30;;;24.70;96.40;;;;;;4957294;28;20455;-63
2022/09/11 15:16:10;;;;;;;5.70;5.20;;;24.50;96.70;;;;;;4957092;28;20526;-63
2022/09/11 15:18:36;;;;;;;4.97;4.57;;;24.30;97.30;;;;;;4957347;28;20459;-63
2022/09/11 15:21:03;;;;;;;5.50;5.20;;;24.20;98.30;;;;;;4956703;28;20511;-63
2022/09/11 15:23:30;;;;;;;5.23;4.93;;;24.10;97.80;;;;;;4957398;28;20467;-63
2022/09/11 15:26:00;;;;;;;5.53;5.13;;;24.10;97.90;;;;;;4957319;28;20448;-63
2022/09/11 15:28:30;;;;;;;4.87;4.50;;;24.00;97.60;;;;;;4957007;28;20459;-63
2022/09/11 15:30:58;;;;;;;5.50;5.00;;;23.90;97.50;;;;;;4957635;28;20475;-63
2022/09/11 15:33:25;;;;;;;5.40;5.10;;;23.80;98.30;;;;;;4956799;28;20786;-63
2022/09/11 15:35:55;;;;;;;5.33;5.03;;;23.70;98.40;;;;;;4956528;28;20475;-63
2022/09/11 15:38:22;;;;;;;5.47;5.17;;;23.60;98.70;;;;;;4956606;28;20443;-63
2022/09/11 15:40:52;;;;;;;5.73;5.33;;;23.60;98.60;;;;;;4956608;28;20864;-63
2022/09/11 15:43:19;;;;;;;5.37;5.00;;;23.70;99.10;;;;;;4957216;28;20466;-63
2022/09/11 15:45:47;;;;;;;5.60;5.13;;;23.70;98.70;;;;;;4957238;28;20456;-63
2022/09/11 15:48:14;;;;;;;5.40;5.10;;;23.70;99.30;;;;;;4956245;28;20459;-64
2022/09/11 15:50:42;;;;;;;4.93;4.63;;;23.70;99.60;;;;;;4956326;28;20570;-63
2022/09/11 15:53:09;;;;;;;5.87;5.47;;;23.80;99.90;;;;;;4956593;28;20456;-63
2022/09/11 15:55:35;;;;;;;5.00;4.57;;;23.80;99.80;;;;;;4956370;28;20489;-63
2022/09/11 15:58:03;;;;;;;5.17;4.87;;;23.70;99.70;;;;;;4956450;28;20865;-63
2022/09/11 16:00:30;;;;;;;5.17;4.80;;;23.70;99.50;;;;;;4956121;28;20506;-63
2022/09/11 16:02:58;;;;;;;5.07;4.77;;;23.70;99.80;;;;;;4957078;28;20837;-63
2022/09/11 16:05:24;;;;;;;5.00;4.67;;;23.60;99.40;;;;;;4956334;28;20502;-63
2022/09/11 16:07:51;;;;;;;5.33;5.03;;;23.60;99.90;;;;;;4956109;28;20459;-63
2022/09/11 16:10:18;;;;;;;5.77;5.47;;;23.60;99.90;;;;;;4956048;28;20525;-62
2022/09/11 16:12:45;;;;;;;5.20;4.87;;;23.50;99.90;;;;;;4956210;28;20947;-63
2022/09/11 16:15:12;;;;;;;5.90;5.50;;;23.60;99.90;;;;;;4956118;28;20574;-63
2022/09/11 16:17:39;;;;;;;4.97;4.67;;;23.60;99.90;;;;;;4955967;28;20864;-63
2022/09/11 16:20:08;;;;;;;6.10;5.60;;;23.50;99.50;;;;;;4955989;28;20459;-63
2022/09/11 16:22:35;;;;;;;5.60;5.30;;;23.30;99.50;;;;;;4955965;28;20836;-63
2022/09/11 16:25:02;;;;;;;5.50;5.00;;;23.30;99.90;;;;;;4955905;28;20462;-63
2022/09/11 16:27:29;;;;;;;6.90;6.40;;;23.20;99.90;;;;;;4956197;28;20455;-63
2022/09/11 16:29:56;;;;;;;5.27;4.97;;;23.10;99.90;;;;;;4955855;28;20490;-63
2022/09/11 16:32:30;;;;;;;5.87;5.47;;;23.10;99.90;;;;;;4955700;28;20511;-63
2022/09/11 16:34:58;;;;;;;5.63;5.23;;;23.10;99.90;;;;;;4955796;28;20503;-63
2022/09/11 16:37:27;;;;;;;4.90;4.60;;;23.00;99.90;;;;;;4955834;28;20451;-63
2022/09/11 16:39:53;;;;;;;5.37;5.07;;;23.00;99.90;;;;;;4955749;28;20499;-63
2022/09/11 16:42:20;;;;;;;6.37;5.83;;;23.00;99.90;;;;;;4956337;28;20985;-63
2022/09/11 16:44:48;;;;;;;6.67;5.10;;;23.00;99.90;;;;;;4955566;28;20443;-63
2022/09/11 16:47:15;;;;;;;5.47;5.07;;;23.00;99.90;;;;;;4955584;28;20459;-63
2022/09/11 16:49:41;;;;;;;4.73;4.43;;;23.00;99.90;;;;;;4956623;28;20490;-63
2022/09/11 16:52:10;;;;;;;5.50;5.10;;;23.00;99.90;;;;;;4955978;28;20481;-63
2022/09/11 16:54:38;;;;;;;5.10;4.80;;;22.90;99.90;;;;;;4956102;28;20456;-63
2022/09/11 16:57:05;;;;;;;5.10;4.70;;;22.80;99.90;;;;;;4956286;28;20466;-63
2022/09/11 16:59:32;;;;;;;5.40;5.07;;;22.80;99.90;;;;;;4956133;28;20943;-63
2022/09/11 17:01:59;;;;;;;7.10;6.50;;;22.70;99.90;;;;;;4956031;28;20523;-64
2022/09/11 17:04:26;;;;;;;5.83;5.30;;;22.60;99.90;;;;;;4957654;28;20451;-63